sensor_id;sensor_type;location;lat;lon;timestamp;P1;durP1;ratioP1;P2;durP2;ratioP2
77678;SDS011;66835;49.478;10.724;2023-05-07T00:00:07;0.40;;;0.40;;
77678;SDS011;66835;49.478;10.724;2023-05-07T00:02:33;0.40;;;0.40;;
77678;SDS011;66835;49.478;10.724;2023-05-07T00:05:00;0.40;;;0.40;;
77678;SDS011;66835;49.478;10.724;2023-05-07T00:07:27;0.50;;;0.40;;
77678;SDS011;66835;49.478;10.724;2023-05-07T00:09:52;0.30;;;0.30;;
77678;SDS011;66835;49.478;10.724;2023-05-07T00:12:17;0.75;;;0.40;;
77678;SDS011;66835;49.478;10.724;2023-05-07T00:14:43;0.50;;;0.50;;
77678;SDS011;66835;49.478;10.724;2023-05-07T00:17:08;0.47;;;0.40;;
77678;SDS011;66835;49.478;10.724;2023-05-07T00:19:34;1.25;;;0.50;;
77678;SDS011;66835;49.478;10.724;2023-05-07T00:22:00;0.40;;;0.40;;
77678;SDS011;66835;49.478;10.724;2023-05-07T00:24:26;0.50;;;0.50;;
77678;SDS011;66835;49.478;10.724;2023-05-07T00:26:51;0.38;;;0.38;;
77678;SDS011;66835;49.478;10.724;2023-05-07T00:29:17;0.60;;;0.50;;
77678;SDS011;66835;49.478;10.724;2023-05-07T00:31:43;0.40;;;0.40;;
77678;SDS011;66835;49.478;10.724;2023-05-07T00:34:08;0.40;;;0.40;;
77678;SDS011;66835;49.478;10.724;2023-05-07T00:36:33;0.57;;;0.57;;
77678;SDS011;66835;49.478;10.724;2023-05-07T00:39:00;0.55;;;0.55;;
77678;SDS011;66835;49.478;10.724;2023-05-07T00:41:28;0.95;;;0.60;;
77678;SDS011;66835;49.478;10.724;2023-05-07T00:43:53;0.75;;;0.50;;
77678;SDS011;66835;49.478;10.724;2023-05-07T00:46:19;0.52;;;0.43;;
77678;SDS011;66835;49.478;10.724;2023-05-07T00:48:45;0.40;;;0.40;;
77678;SDS011;66835;49.478;10.724;2023-05-07T00:51:11;0.60;;;0.50;;
77678;SDS011;66835;49.478;10.724;2023-05-07T00:53:37;0.47;;;0.47;;
77678;SDS011;66835;49.478;10.724;2023-05-07T00:56:04;0.50;;;0.40;;
77678;SDS011;66835;49.478;10.724;2023-05-07T00:58:31;0.50;;;0.50;;
77678;SDS011;66835;49.478;10.724;2023-05-07T01:00:56;0.40;;;0.40;;
77678;SDS011;66835;49.478;10.724;2023-05-07T01:03:23;0.43;;;0.43;;
77678;SDS011;66835;49.478;10.724;2023-05-07T01:05:48;0.30;;;0.30;;
77678;SDS011;66835;49.478;10.724;2023-05-07T01:08:14;0.32;;;0.32;;
77678;SDS011;66835;49.478;10.724;2023-05-07T01:10:40;0.70;;;0.43;;
77678;SDS011;66835;49.478;10.724;2023-05-07T01:13:09;0.40;;;0.40;;
77678;SDS011;66835;49.478;10.724;2023-05-07T01:15:35;0.43;;;0.43;;
77678;SDS011;66835;49.478;10.724;2023-05-07T01:18:00;0.40;;;0.40;;
77678;SDS011;66835;49.478;10.724;2023-05-07T01:20:26;0.40;;;0.40;;
77678;SDS011;66835;49.478;10.724;2023-05-07T01:22:54;0.40;;;0.40;;
77678;SDS011;66835;49.478;10.724;2023-05-07T01:25:19;0.32;;;0.32;;
77678;SDS011;66835;49.478;10.724;2023-05-07T01:27:45;0.85;;;0.55;;
77678;SDS011;66835;49.478;10.724;2023-05-07T01:30:11;0.55;;;0.50;;
77678;SDS011;66835;49.478;10.724;2023-05-07T01:32:38;0.57;;;0.40;;
77678;SDS011;66835;49.478;10.724;2023-05-07T01:35:07;0.40;;;0.40;;
77678;SDS011;66835;49.478;10.724;2023-05-07T01:37:37;0.70;;;0.50;;
77678;SDS011;66835;49.478;10.724;2023-05-07T01:40:05;0.40;;;0.40;;
77678;SDS011;66835;49.478;10.724;2023-05-07T01:42:32;0.55;;;0.55;;
77678;SDS011;66835;49.478;10.724;2023-05-07T01:44:57;0.68;;;0.60;;
77678;SDS011;66835;49.478;10.724;2023-05-07T01:47:23;0.32;;;0.32;;
77678;SDS011;66835;49.478;10.724;2023-05-07T01:49:49;0.77;;;0.50;;
77678;SDS011;66835;49.478;10.724;2023-05-07T01:52:15;0.20;;;0.20;;
77678;SDS011;66835;49.478;10.724;2023-05-07T01:54:40;0.60;;;0.60;;
77678;SDS011;66835;49.478;10.724;2023-05-07T01:57:07;0.30;;;0.30;;
77678;SDS011;66835;49.478;10.724;2023-05-07T01:59:32;0.30;;;0.30;;
77678;SDS011;66835;49.478;10.724;2023-05-07T02:01:58;0.40;;;0.40;;
77678;SDS011;66835;49.478;10.724;2023-05-07T02:04:23;0.47;;;0.47;;
77678;SDS011;66835;49.478;10.724;2023-05-07T02:06:49;0.45;;;0.45;;
77678;SDS011;66835;49.478;10.724;2023-05-07T02:09:15;0.75;;;0.50;;
77678;SDS011;66835;49.478;10.724;2023-05-07T02:11:41;0.47;;;0.47;;
77678;SDS011;66835;49.478;10.724;2023-05-07T02:14:07;0.40;;;0.40;;
77678;SDS011;66835;49.478;10.724;2023-05-07T02:16:33;0.47;;;0.40;;
77678;SDS011;66835;49.478;10.724;2023-05-07T02:18:58;0.40;;;0.40;;
77678;SDS011;66835;49.478;10.724;2023-05-07T02:21:24;0.40;;;0.40;;
77678;SDS011;66835;49.478;10.724;2023-05-07T02:23:50;0.45;;;0.45;;
77678;SDS011;66835;49.478;10.724;2023-05-07T02:26:15;0.80;;;0.35;;
77678;SDS011;66835;49.478;10.724;2023-05-07T02:28:40;0.40;;;0.40;;
77678;SDS011;66835;49.478;10.724;2023-05-07T02:31:07;0.50;;;0.50;;
77678;SDS011;66835;49.478;10.724;2023-05-07T02:33:33;0.40;;;0.40;;
77678;SDS011;66835;49.478;10.724;2023-05-07T02:36:05;0.60;;;0.60;;
77678;SDS011;66835;49.478;10.724;2023-05-07T02:38:31;0.40;;;0.40;;
77678;SDS011;66835;49.478;10.724;2023-05-07T02:40:57;0.30;;;0.30;;
77678;SDS011;66835;49.478;10.724;2023-05-07T02:43:22;0.45;;;0.45;;
77678;SDS011;66835;49.478;10.724;2023-05-07T02:45:47;0.98;;;0.50;;
77678;SDS011;66835;49.478;10.724;2023-05-07T02:48:17;0.32;;;0.32;;
77678;SDS011;66835;49.478;10.724;2023-05-07T02:50:42;0.63;;;0.47;;
77678;SDS011;66835;49.478;10.724;2023-05-07T02:53:07;0.40;;;0.40;;
77678;SDS011;66835;49.478;10.724;2023-05-07T02:55:33;0.50;;;0.50;;
77678;SDS011;66835;49.478;10.724;2023-05-07T02:57:58;0.38;;;0.38;;
77678;SDS011;66835;49.478;10.724;2023-05-07T03:00:24;0.40;;;0.40;;
77678;SDS011;66835;49.478;10.724;2023-05-07T03:02:49;0.50;;;0.50;;
77678;SDS011;66835;49.478;10.724;2023-05-07T03:05:16;0.20;;;0.20;;
77678;SDS011;66835;49.478;10.724;2023-05-07T03:07:41;0.47;;;0.35;;
77678;SDS011;66835;49.478;10.724;2023-05-07T03:10:10;0.50;;;0.50;;
77678;SDS011;66835;49.478;10.724;2023-05-07T03:12:35;0.38;;;0.35;;
77678;SDS011;66835;49.478;10.724;2023-05-07T03:15:01;0.63;;;0.38;;
77678;SDS011;66835;49.478;10.724;2023-05-07T03:17:26;0.60;;;0.60;;
77678;SDS011;66835;49.478;10.724;2023-05-07T03:19:51;0.35;;;0.35;;
77678;SDS011;66835;49.478;10.724;2023-05-07T03:22:18;1.05;;;0.50;;
77678;SDS011;66835;49.478;10.724;2023-05-07T03:24:44;0.50;;;0.47;;
77678;SDS011;66835;49.478;10.724;2023-05-07T03:27:09;0.40;;;0.30;;
77678;SDS011;66835;49.478;10.724;2023-05-07T03:29:34;0.50;;;0.50;;
77678;SDS011;66835;49.478;10.724;2023-05-07T03:32:00;0.30;;;0.30;;
77678;SDS011;66835;49.478;10.724;2023-05-07T03:34:25;0.85;;;0.43;;
77678;SDS011;66835;49.478;10.724;2023-05-07T03:36:51;0.40;;;0.40;;
77678;SDS011;66835;49.478;10.724;2023-05-07T03:39:18;0.55;;;0.50;;
77678;SDS011;66835;49.478;10.724;2023-05-07T03:41:43;0.43;;;0.43;;
77678;SDS011;66835;49.478;10.724;2023-05-07T03:44:09;0.28;;;0.28;;
77678;SDS011;66835;49.478;10.724;2023-05-07T03:46:34;0.40;;;0.40;;
77678;SDS011;66835;49.478;10.724;2023-05-07T03:48:59;0.85;;;0.60;;
77678;SDS011;66835;49.478;10.724;2023-05-07T03:51:25;0.50;;;0.50;;
77678;SDS011;66835;49.478;10.724;2023-05-07T03:53:51;0.28;;;0.28;;
77678;SDS011;66835;49.478;10.724;2023-05-07T03:56:20;0.77;;;0.55;;
77678;SDS011;66835;49.478;10.724;2023-05-07T03:58:46;0.43;;;0.43;;
77678;SDS011;66835;49.478;10.724;2023-05-07T04:01:12;0.40;;;0.40;;
77678;SDS011;66835;49.478;10.724;2023-05-07T04:03:37;0.40;;;0.40;;
77678;SDS011;66835;49.478;10.724;2023-05-07T04:06:03;0.40;;;0.40;;
77678;SDS011;66835;49.478;10.724;2023-05-07T04:08:28;0.45;;;0.40;;
77678;SDS011;66835;49.478;10.724;2023-05-07T04:10:54;0.50;;;0.50;;
77678;SDS011;66835;49.478;10.724;2023-05-07T04:13:21;0.40;;;0.40;;
77678;SDS011;66835;49.478;10.724;2023-05-07T04:15:46;0.30;;;0.30;;
77678;SDS011;66835;49.478;10.724;2023-05-07T04:18:14;0.40;;;0.40;;
77678;SDS011;66835;49.478;10.724;2023-05-07T04:20:39;0.30;;;0.30;;
77678;SDS011;66835;49.478;10.724;2023-05-07T04:23:05;0.30;;;0.30;;
77678;SDS011;66835;49.478;10.724;2023-05-07T04:25:30;0.50;;;0.50;;
77678;SDS011;66835;49.478;10.724;2023-05-07T04:27:56;0.63;;;0.60;;
77678;SDS011;66835;49.478;10.724;2023-05-07T04:30:22;0.40;;;0.40;;
77678;SDS011;66835;49.478;10.724;2023-05-07T04:32:48;0.40;;;0.40;;
77678;SDS011;66835;49.478;10.724;2023-05-07T04:35:13;0.30;;;0.30;;
77678;SDS011;66835;49.478;10.724;2023-05-07T04:37:39;0.40;;;0.40;;
77678;SDS011;66835;49.478;10.724;2023-05-07T04:40:05;0.43;;;0.43;;
77678;SDS011;66835;49.478;10.724;2023-05-07T04:42:32;0.63;;;0.60;;
77678;SDS011;66835;49.478;10.724;2023-05-07T04:44:57;1.05;;;0.40;;
77678;SDS011;66835;49.478;10.724;2023-05-07T04:47:24;0.50;;;0.50;;
77678;SDS011;66835;49.478;10.724;2023-05-07T04:49:50;0.43;;;0.40;;
77678;SDS011;66835;49.478;10.724;2023-05-07T04:52:15;0.68;;;0.52;;
77678;SDS011;66835;49.478;10.724;2023-05-07T04:54:41;0.40;;;0.40;;
77678;SDS011;66835;49.478;10.724;2023-05-07T04:57:07;0.30;;;0.30;;
77678;SDS011;66835;49.478;10.724;2023-05-07T04:59:33;0.45;;;0.45;;
77678;SDS011;66835;49.478;10.724;2023-05-07T05:01:58;0.30;;;0.30;;
77678;SDS011;66835;49.478;10.724;2023-05-07T05:04:25;0.40;;;0.40;;
77678;SDS011;66835;49.478;10.724;2023-05-07T05:06:50;0.40;;;0.40;;
77678;SDS011;66835;49.478;10.724;2023-05-07T05:09:16;0.60;;;0.60;;
77678;SDS011;66835;49.478;10.724;2023-05-07T05:11:41;0.50;;;0.50;;
77678;SDS011;66835;49.478;10.724;2023-05-07T05:14:06;0.50;;;0.50;;
77678;SDS011;66835;49.478;10.724;2023-05-07T05:16:32;0.68;;;0.60;;
77678;SDS011;66835;49.478;10.724;2023-05-07T05:18:57;0.50;;;0.50;;
77678;SDS011;66835;49.478;10.724;2023-05-07T05:21:24;0.50;;;0.50;;
77678;SDS011;66835;49.478;10.724;2023-05-07T05:23:50;0.50;;;0.50;;
77678;SDS011;66835;49.478;10.724;2023-05-07T05:26:15;0.60;;;0.60;;
77678;SDS011;66835;49.478;10.724;2023-05-07T05:28:40;0.43;;;0.43;;
77678;SDS011;66835;49.478;10.724;2023-05-07T05:31:06;0.60;;;0.60;;
77678;SDS011;66835;49.478;10.724;2023-05-07T05:33:31;0.52;;;0.50;;
77678;SDS011;66835;49.478;10.724;2023-05-07T05:35:57;1.05;;;0.60;;
77678;SDS011;66835;49.478;10.724;2023-05-07T05:38:23;0.63;;;0.60;;
77678;SDS011;66835;49.478;10.724;2023-05-07T05:40:49;0.80;;;0.60;;
77678;SDS011;66835;49.478;10.724;2023-05-07T05:43:14;0.55;;;0.52;;
77678;SDS011;66835;49.478;10.724;2023-05-07T05:45:39;0.60;;;0.50;;
77678;SDS011;66835;49.478;10.724;2023-05-07T05:48:05;0.55;;;0.50;;
77678;SDS011;66835;49.478;10.724;2023-05-07T05:50:30;0.50;;;0.50;;
77678;SDS011;66835;49.478;10.724;2023-05-07T05:52:56;0.70;;;0.70;;
77678;SDS011;66835;49.478;10.724;2023-05-07T05:55:24;0.75;;;0.52;;
77678;SDS011;66835;49.478;10.724;2023-05-07T05:57:49;0.63;;;0.63;;
77678;SDS011;66835;49.478;10.724;2023-05-07T06:00:15;0.63;;;0.60;;
77678;SDS011;66835;49.478;10.724;2023-05-07T06:02:41;0.90;;;0.70;;
77678;SDS011;66835;49.478;10.724;2023-05-07T06:05:07;0.60;;;0.60;;
77678;SDS011;66835;49.478;10.724;2023-05-07T06:07:33;0.57;;;0.50;;
77678;SDS011;66835;49.478;10.724;2023-05-07T06:09:59;0.40;;;0.40;;
77678;SDS011;66835;49.478;10.724;2023-05-07T06:12:26;0.40;;;0.40;;
77678;SDS011;66835;49.478;10.724;2023-05-07T06:14:51;1.00;;;0.52;;
77678;SDS011;66835;49.478;10.724;2023-05-07T06:17:17;0.50;;;0.50;;
77678;SDS011;66835;49.478;10.724;2023-05-07T06:19:42;0.50;;;0.50;;
77678;SDS011;66835;49.478;10.724;2023-05-07T06:22:08;0.70;;;0.63;;
77678;SDS011;66835;49.478;10.724;2023-05-07T06:24:33;0.43;;;0.43;;
77678;SDS011;66835;49.478;10.724;2023-05-07T06:26:58;0.63;;;0.63;;
77678;SDS011;66835;49.478;10.724;2023-05-07T06:29:25;0.65;;;0.55;;
77678;SDS011;66835;49.478;10.724;2023-05-07T06:31:51;0.40;;;0.40;;
77678;SDS011;66835;49.478;10.724;2023-05-07T06:34:17;0.77;;;0.63;;
77678;SDS011;66835;49.478;10.724;2023-05-07T06:36:42;0.57;;;0.57;;
77678;SDS011;66835;49.478;10.724;2023-05-07T06:39:08;0.50;;;0.50;;
77678;SDS011;66835;49.478;10.724;2023-05-07T06:41:33;0.60;;;0.50;;
77678;SDS011;66835;49.478;10.724;2023-05-07T06:44:00;0.50;;;0.50;;
77678;SDS011;66835;49.478;10.724;2023-05-07T06:46:38;0.60;;;0.60;;
77678;SDS011;66835;49.478;10.724;2023-05-07T06:49:04;0.52;;;0.52;;
77678;SDS011;66835;49.478;10.724;2023-05-07T06:51:30;0.40;;;0.40;;
77678;SDS011;66835;49.478;10.724;2023-05-07T06:53:55;0.40;;;0.40;;
77678;SDS011;66835;49.478;10.724;2023-05-07T06:56:20;0.52;;;0.52;;
77678;SDS011;66835;49.478;10.724;2023-05-07T06:58:46;1.38;;;0.63;;
77678;SDS011;66835;49.478;10.724;2023-05-07T07:01:11;0.50;;;0.50;;
77678;SDS011;66835;49.478;10.724;2023-05-07T07:03:38;0.50;;;0.50;;
77678;SDS011;66835;49.478;10.724;2023-05-07T07:06:03;0.50;;;0.50;;
77678;SDS011;66835;49.478;10.724;2023-05-07T07:08:29;0.45;;;0.40;;
77678;SDS011;66835;49.478;10.724;2023-05-07T07:10:54;0.73;;;0.60;;
77678;SDS011;66835;49.478;10.724;2023-05-07T07:13:20;0.85;;;0.60;;
77678;SDS011;66835;49.478;10.724;2023-05-07T07:15:45;0.50;;;0.50;;
77678;SDS011;66835;49.478;10.724;2023-05-07T07:18:11;0.47;;;0.47;;
77678;SDS011;66835;49.478;10.724;2023-05-07T07:20:38;0.50;;;0.50;;
77678;SDS011;66835;49.478;10.724;2023-05-07T07:23:03;0.50;;;0.50;;
77678;SDS011;66835;49.478;10.724;2023-05-07T07:25:29;0.50;;;0.50;;
77678;SDS011;66835;49.478;10.724;2023-05-07T07:27:54;0.45;;;0.40;;
77678;SDS011;66835;49.478;10.724;2023-05-07T07:30:20;0.50;;;0.50;;
77678;SDS011;66835;49.478;10.724;2023-05-07T07:32:45;0.60;;;0.60;;
77678;SDS011;66835;49.478;10.724;2023-05-07T07:35:10;0.52;;;0.50;;
77678;SDS011;66835;49.478;10.724;2023-05-07T07:37:37;0.52;;;0.40;;
77678;SDS011;66835;49.478;10.724;2023-05-07T07:40:03;0.50;;;0.50;;
77678;SDS011;66835;49.478;10.724;2023-05-07T07:42:28;0.50;;;0.50;;
77678;SDS011;66835;49.478;10.724;2023-05-07T07:44:54;0.47;;;0.47;;
77678;SDS011;66835;49.478;10.724;2023-05-07T07:47:20;0.57;;;0.57;;
77678;SDS011;66835;49.478;10.724;2023-05-07T07:49:45;0.63;;;0.63;;
77678;SDS011;66835;49.478;10.724;2023-05-07T07:52:10;0.53;;;0.53;;
77678;SDS011;66835;49.478;10.724;2023-05-07T07:54:37;0.68;;;0.68;;
77678;SDS011;66835;49.478;10.724;2023-05-07T07:57:03;0.40;;;0.40;;
77678;SDS011;66835;49.478;10.724;2023-05-07T07:59:28;0.50;;;0.50;;
77678;SDS011;66835;49.478;10.724;2023-05-07T08:01:53;0.40;;;0.40;;
77678;SDS011;66835;49.478;10.724;2023-05-07T08:04:21;0.50;;;0.45;;
77678;SDS011;66835;49.478;10.724;2023-05-07T08:06:47;0.60;;;0.52;;
77678;SDS011;66835;49.478;10.724;2023-05-07T08:09:12;0.50;;;0.50;;
77678;SDS011;66835;49.478;10.724;2023-05-07T08:11:39;0.57;;;0.57;;
77678;SDS011;66835;49.478;10.724;2023-05-07T08:14:04;0.30;;;0.30;;
77678;SDS011;66835;49.478;10.724;2023-05-07T08:16:30;0.50;;;0.50;;
77678;SDS011;66835;49.478;10.724;2023-05-07T08:18:55;0.38;;;0.38;;
77678;SDS011;66835;49.478;10.724;2023-05-07T08:21:21;0.30;;;0.30;;
77678;SDS011;66835;49.478;10.724;2023-05-07T08:23:47;0.38;;;0.38;;
77678;SDS011;66835;49.478;10.724;2023-05-07T08:26:12;0.30;;;0.30;;
77678;SDS011;66835;49.478;10.724;2023-05-07T08:28:39;0.40;;;0.40;;
77678;SDS011;66835;49.478;10.724;2023-05-07T08:31:04;0.30;;;0.30;;
77678;SDS011;66835;49.478;10.724;2023-05-07T08:33:30;0.40;;;0.40;;
77678;SDS011;66835;49.478;10.724;2023-05-07T08:35:55;0.40;;;0.40;;
77678;SDS011;66835;49.478;10.724;2023-05-07T08:38:21;0.40;;;0.40;;
77678;SDS011;66835;49.478;10.724;2023-05-07T08:40:46;0.40;;;0.38;;
77678;SDS011;66835;49.478;10.724;2023-05-07T08:43:13;0.40;;;0.40;;
77678;SDS011;66835;49.478;10.724;2023-05-07T08:45:40;0.50;;;0.50;;
77678;SDS011;66835;49.478;10.724;2023-05-07T08:48:08;0.40;;;0.40;;
77678;SDS011;66835;49.478;10.724;2023-05-07T08:50:35;0.60;;;0.43;;
77678;SDS011;66835;49.478;10.724;2023-05-07T08:53:02;0.40;;;0.40;;
77678;SDS011;66835;49.478;10.724;2023-05-07T08:55:28;0.47;;;0.40;;
77678;SDS011;66835;49.478;10.724;2023-05-07T08:57:53;0.50;;;0.40;;
77678;SDS011;66835;49.478;10.724;2023-05-07T09:00:19;0.30;;;0.30;;
77678;SDS011;66835;49.478;10.724;2023-05-07T09:02:46;0.30;;;0.30;;
77678;SDS011;66835;49.478;10.724;2023-05-07T09:05:11;0.40;;;0.40;;
77678;SDS011;66835;49.478;10.724;2023-05-07T09:07:36;0.82;;;0.60;;
77678;SDS011;66835;49.478;10.724;2023-05-07T09:10:02;0.32;;;0.32;;
77678;SDS011;66835;49.478;10.724;2023-05-07T09:12:27;0.20;;;0.20;;
77678;SDS011;66835;49.478;10.724;2023-05-07T09:14:53;0.40;;;0.40;;
77678;SDS011;66835;49.478;10.724;2023-05-07T09:17:18;0.30;;;0.30;;
77678;SDS011;66835;49.478;10.724;2023-05-07T09:19:45;0.55;;;0.30;;
77678;SDS011;66835;49.478;10.724;2023-05-07T09:22:11;0.45;;;0.45;;
77678;SDS011;66835;49.478;10.724;2023-05-07T09:24:36;0.30;;;0.30;;
77678;SDS011;66835;49.478;10.724;2023-05-07T09:27:03;0.30;;;0.30;;
77678;SDS011;66835;49.478;10.724;2023-05-07T09:29:28;0.40;;;0.40;;
77678;SDS011;66835;49.478;10.724;2023-05-07T09:31:55;0.32;;;0.30;;
77678;SDS011;66835;49.478;10.724;2023-05-07T09:34:20;0.25;;;0.25;;
77678;SDS011;66835;49.478;10.724;2023-05-07T09:36:47;0.40;;;0.40;;
77678;SDS011;66835;49.478;10.724;2023-05-07T09:39:13;0.40;;;0.40;;
77678;SDS011;66835;49.478;10.724;2023-05-07T09:41:43;0.20;;;0.20;;
77678;SDS011;66835;49.478;10.724;2023-05-07T09:44:09;0.47;;;0.47;;
77678;SDS011;66835;49.478;10.724;2023-05-07T09:46:34;0.90;;;0.38;;
77678;SDS011;66835;49.478;10.724;2023-05-07T09:49:02;0.30;;;0.30;;
77678;SDS011;66835;49.478;10.724;2023-05-07T09:51:28;0.20;;;0.20;;
77678;SDS011;66835;49.478;10.724;2023-05-07T09:53:56;0.25;;;0.25;;
77678;SDS011;66835;49.478;10.724;2023-05-07T09:56:22;0.47;;;0.45;;
77678;SDS011;66835;49.478;10.724;2023-05-07T09:58:47;0.40;;;0.40;;
77678;SDS011;66835;49.478;10.724;2023-05-07T10:01:15;0.47;;;0.30;;
77678;SDS011;66835;49.478;10.724;2023-05-07T10:03:41;0.40;;;0.35;;
77678;SDS011;66835;49.478;10.724;2023-05-07T10:06:08;0.20;;;0.20;;
77678;SDS011;66835;49.478;10.724;2023-05-07T10:08:35;0.28;;;0.28;;
77678;SDS011;66835;49.478;10.724;2023-05-07T10:11:02;0.30;;;0.30;;
77678;SDS011;66835;49.478;10.724;2023-05-07T10:13:28;0.30;;;0.30;;
77678;SDS011;66835;49.478;10.724;2023-05-07T10:15:54;1.25;;;0.40;;
77678;SDS011;66835;49.478;10.724;2023-05-07T10:18:20;0.28;;;0.28;;
77678;SDS011;66835;49.478;10.724;2023-05-07T10:20:48;0.20;;;0.20;;
77678;SDS011;66835;49.478;10.724;2023-05-07T10:23:17;0.20;;;0.20;;
77678;SDS011;66835;49.478;10.724;2023-05-07T10:25:44;0.30;;;0.30;;
77678;SDS011;66835;49.478;10.724;2023-05-07T10:28:11;0.35;;;0.35;;
77678;SDS011;66835;49.478;10.724;2023-05-07T10:30:39;0.40;;;0.30;;
77678;SDS011;66835;49.478;10.724;2023-05-07T10:33:10;0.25;;;0.25;;
77678;SDS011;66835;49.478;10.724;2023-05-07T10:35:37;0.22;;;0.20;;
77678;SDS011;66835;49.478;10.724;2023-05-07T10:38:04;0.30;;;0.30;;
77678;SDS011;66835;49.478;10.724;2023-05-07T10:40:30;0.20;;;0.20;;
77678;SDS011;66835;49.478;10.724;2023-05-07T10:42:56;0.55;;;0.30;;
77678;SDS011;66835;49.478;10.724;2023-05-07T10:45:24;0.20;;;0.20;;
77678;SDS011;66835;49.478;10.724;2023-05-07T10:48:05;0.20;;;0.20;;
77678;SDS011;66835;49.478;10.724;2023-05-07T10:50:32;0.20;;;0.20;;
77678;SDS011;66835;49.478;10.724;2023-05-07T10:55:46;0.20;;;0.20;;
77678;SDS011;66835;49.478;10.724;2023-05-07T10:58:25;0.25;;;0.20;;
77678;SDS011;66835;49.478;10.724;2023-05-07T11:00:57;0.20;;;0.20;;
77678;SDS011;66835;49.478;10.724;2023-05-07T11:03:23;0.30;;;0.30;;
77678;SDS011;66835;49.478;10.724;2023-05-07T11:06:04;0.32;;;0.32;;
77678;SDS011;66835;49.478;10.724;2023-05-07T11:11:26;0.22;;;0.22;;
77678;SDS011;66835;49.478;10.724;2023-05-07T11:14:09;0.20;;;0.20;;
77678;SDS011;66835;49.478;10.724;2023-05-07T11:16:36;0.20;;;0.20;;
77678;SDS011;66835;49.478;10.724;2023-05-07T11:19:02;0.20;;;0.20;;
77678;SDS011;66835;49.478;10.724;2023-05-07T11:21:31;0.28;;;0.28;;
77678;SDS011;66835;49.478;10.724;2023-05-07T11:23:58;0.22;;;0.22;;
77678;SDS011;66835;49.478;10.724;2023-05-07T11:26:24;0.25;;;0.25;;
77678;SDS011;66835;49.478;10.724;2023-05-07T11:28:50;0.28;;;0.20;;
77678;SDS011;66835;49.478;10.724;2023-05-07T11:31:19;0.32;;;0.32;;
77678;SDS011;66835;49.478;10.724;2023-05-07T11:33:48;0.10;;;0.10;;
77678;SDS011;66835;49.478;10.724;2023-05-07T11:36:14;0.10;;;0.10;;
77678;SDS011;66835;49.478;10.724;2023-05-07T11:38:40;0.20;;;0.20;;
77678;SDS011;66835;49.478;10.724;2023-05-07T11:41:05;0.10;;;0.10;;
77678;SDS011;66835;49.478;10.724;2023-05-07T11:43:32;0.13;;;0.13;;
77678;SDS011;66835;49.478;10.724;2023-05-07T11:46:04;0.30;;;0.10;;
77678;SDS011;66835;49.478;10.724;2023-05-07T11:48:30;0.20;;;0.20;;
77678;SDS011;66835;49.478;10.724;2023-05-07T11:51:00;0.00;;;0.00;;
77678;SDS011;66835;49.478;10.724;2023-05-07T11:53:27;0.15;;;0.15;;
77678;SDS011;66835;49.478;10.724;2023-05-07T11:55:53;0.40;;;0.10;;
77678;SDS011;66835;49.478;10.724;2023-05-07T11:58:20;0.17;;;0.17;;
77678;SDS011;66835;49.478;10.724;2023-05-07T12:00:49;0.20;;;0.20;;
77678;SDS011;66835;49.478;10.724;2023-05-07T12:03:15;0.20;;;0.20;;
77678;SDS011;66835;49.478;10.724;2023-05-07T12:05:40;0.20;;;0.20;;
77678;SDS011;66835;49.478;10.724;2023-05-07T12:08:08;0.10;;;0.10;;
77678;SDS011;66835;49.478;10.724;2023-05-07T12:10:33;0.20;;;0.20;;
77678;SDS011;66835;49.478;10.724;2023-05-07T12:12:58;0.20;;;0.20;;
77678;SDS011;66835;49.478;10.724;2023-05-07T12:15:24;0.30;;;0.30;;
77678;SDS011;66835;49.478;10.724;2023-05-07T12:17:49;0.20;;;0.10;;
77678;SDS011;66835;49.478;10.724;2023-05-07T12:20:17;0.10;;;0.10;;
77678;SDS011;66835;49.478;10.724;2023-05-07T12:22:42;0.30;;;0.30;;
77678;SDS011;66835;49.478;10.724;2023-05-07T12:25:10;0.15;;;0.15;;
77678;SDS011;66835;49.478;10.724;2023-05-07T12:27:36;0.60;;;0.40;;
77678;SDS011;66835;49.478;10.724;2023-05-07T12:30:02;0.20;;;0.20;;
77678;SDS011;66835;49.478;10.724;2023-05-07T12:32:28;0.20;;;0.20;;
77678;SDS011;66835;49.478;10.724;2023-05-07T12:34:54;0.20;;;0.20;;
77678;SDS011;66835;49.478;10.724;2023-05-07T12:37:22;0.17;;;0.17;;
77678;SDS011;66835;49.478;10.724;2023-05-07T12:39:48;0.20;;;0.20;;
77678;SDS011;66835;49.478;10.724;2023-05-07T12:42:16;0.17;;;0.17;;
77678;SDS011;66835;49.478;10.724;2023-05-07T12:44:43;0.10;;;0.10;;
77678;SDS011;66835;49.478;10.724;2023-05-07T12:47:10;0.15;;;0.10;;
77678;SDS011;66835;49.478;10.724;2023-05-07T12:49:36;0.10;;;0.10;;
77678;SDS011;66835;49.478;10.724;2023-05-07T12:52:05;0.13;;;0.10;;
77678;SDS011;66835;49.478;10.724;2023-05-07T12:54:30;0.30;;;0.30;;
77678;SDS011;66835;49.478;10.724;2023-05-07T12:57:00;0.17;;;0.17;;
77678;SDS011;66835;49.478;10.724;2023-05-07T12:59:31;0.15;;;0.15;;
77678;SDS011;66835;49.478;10.724;2023-05-07T13:01:57;0.10;;;0.10;;
77678;SDS011;66835;49.478;10.724;2023-05-07T13:04:24;0.13;;;0.13;;
77678;SDS011;66835;49.478;10.724;2023-05-07T13:06:49;0.15;;;0.15;;
77678;SDS011;66835;49.478;10.724;2023-05-07T13:09:15;0.10;;;0.10;;
77678;SDS011;66835;49.478;10.724;2023-05-07T13:11:40;0.15;;;0.15;;
77678;SDS011;66835;49.478;10.724;2023-05-07T13:14:05;0.15;;;0.15;;
77678;SDS011;66835;49.478;10.724;2023-05-07T13:16:32;0.20;;;0.20;;
77678;SDS011;66835;49.478;10.724;2023-05-07T13:18:58;0.35;;;0.20;;
77678;SDS011;66835;49.478;10.724;2023-05-07T13:21:23;0.17;;;0.10;;
77678;SDS011;66835;49.478;10.724;2023-05-07T13:23:48;0.20;;;0.20;;
77678;SDS011;66835;49.478;10.724;2023-05-07T13:26:14;0.20;;;0.20;;
77678;SDS011;66835;49.478;10.724;2023-05-07T13:28:39;0.05;;;0.05;;
77678;SDS011;66835;49.478;10.724;2023-05-07T13:31:05;0.10;;;0.10;;
77678;SDS011;66835;49.478;10.724;2023-05-07T13:33:32;0.32;;;0.15;;
77678;SDS011;66835;49.478;10.724;2023-05-07T13:35:57;0.15;;;0.13;;
77678;SDS011;66835;49.478;10.724;2023-05-07T13:38:23;0.20;;;0.20;;
77678;SDS011;66835;49.478;10.724;2023-05-07T13:40:48;0.15;;;0.10;;
77678;SDS011;66835;49.478;10.724;2023-05-07T13:43:13;0.10;;;0.10;;
77678;SDS011;66835;49.478;10.724;2023-05-07T13:45:39;0.35;;;0.10;;
77678;SDS011;66835;49.478;10.724;2023-05-07T13:48:05;0.10;;;0.10;;
77678;SDS011;66835;49.478;10.724;2023-05-07T13:50:31;0.20;;;0.20;;
77678;SDS011;66835;49.478;10.724;2023-05-07T13:52:57;0.10;;;0.10;;
77678;SDS011;66835;49.478;10.724;2023-05-07T13:55:23;0.05;;;0.05;;
77678;SDS011;66835;49.478;10.724;2023-05-07T13:57:54;0.47;;;0.10;;
77678;SDS011;66835;49.478;10.724;2023-05-07T14:00:20;0.03;;;0.03;;
77678;SDS011;66835;49.478;10.724;2023-05-07T14:02:46;0.13;;;0.13;;
77678;SDS011;66835;49.478;10.724;2023-05-07T14:05:11;0.20;;;0.15;;
77678;SDS011;66835;49.478;10.724;2023-05-07T14:07:39;0.10;;;0.10;;
77678;SDS011;66835;49.478;10.724;2023-05-07T14:10:05;0.13;;;0.13;;
77678;SDS011;66835;49.478;10.724;2023-05-07T14:12:31;0.30;;;0.30;;
77678;SDS011;66835;49.478;10.724;2023-05-07T14:14:57;0.10;;;0.10;;
77678;SDS011;66835;49.478;10.724;2023-05-07T14:17:22;0.28;;;0.20;;
77678;SDS011;66835;49.478;10.724;2023-05-07T14:19:50;0.10;;;0.10;;
77678;SDS011;66835;49.478;10.724;2023-05-07T14:22:15;0.10;;;0.10;;
77678;SDS011;66835;49.478;10.724;2023-05-07T14:24:42;0.10;;;0.10;;
77678;SDS011;66835;49.478;10.724;2023-05-07T14:27:07;0.10;;;0.10;;
77678;SDS011;66835;49.478;10.724;2023-05-07T14:29:33;0.10;;;0.10;;
77678;SDS011;66835;49.478;10.724;2023-05-07T14:32:00;0.10;;;0.10;;